עמוד ראשי
METAR-TAF:

METAR-TAF

שדות תעופה :

Akhiok, אלסקה, ארצות הברית

קו רוחב: 56-56-19N, קו אורך: 154-10-57W, גובה: 13מטר

תצפית מזג אוויר נוכחית

הדו"ח נערך לפני 39דקות, בשעה 10:56 UTC
רוח 4קשר מכיוון צפון/צפון-מערב
טמפרטורת 10 צלסיוס
לחות 76%
לחץ 1022 hPa
ראות: 16.1קילומטר
שמיים נקיים

METAR: PAKH 151056Z AUTO 33004KT 10SM CLR 10/06 A3018 RMK AO2 SLP220 T01000056

זמן: 03:35 (11:35 UTC)


TAF: חסר

תצפיות ותחזיות מזג אוויר לגבי יותר מ- 4,000 שדות תעופה ברחבי העולם. דוחות METAR ו- TAF.

התחנות הזמינות מסומנות בנקודות צהובות ואדומות על גבי המפה.

העבר את העכבר לנקודה הצבעונית על מנת לראות את שם התחנה.

לאחר מכן, לחץ כדי לראות את תוכן ואת תחזיות מזג האוויר.

כדי לשנות את המפה: לחץ על הכפתורים הירוקים עם הפלוס השחור כדי להתקרב; על הכפתור הירוק עם המקף כדי להתרחק; או בחיצים הירוקים למפות סמוכות.


METAR-TAF: